createdAt,value
2022-11-27T09:21:54.234Z,101181.96
2022-11-27T09:22:57.863Z,101173.12
2022-11-27T09:24:02.861Z,101172.20
2022-11-27T09:25:10.172Z,101175.66
2022-11-27T09:26:16.324Z,101181.83
2022-11-27T09:27:19.642Z,101180.04
2022-11-27T09:28:28.115Z,101176.55
2022-11-27T09:29:28.847Z,101170.41
2022-11-27T09:30:31.346Z,101184.89
2022-11-27T09:31:37.614Z,101179.75
2022-11-27T09:32:40.087Z,101179.14
2022-11-27T09:33:46.115Z,101178.53
2022-11-27T09:34:53.174Z,101187.20
2022-11-27T09:35:56.573Z,101182.63
2022-11-27T09:36:58.954Z,101184.05
2022-11-27T09:38:03.779Z,101185.00
2022-11-27T09:39:07.214Z,101187.98
2022-11-27T09:40:17.443Z,101183.83
2022-11-27T09:41:44.388Z,101182.09
2022-11-27T09:44:19.265Z,101179.89
2022-11-27T09:45:26.884Z,101188.94
2022-11-27T09:46:34.046Z,101185.66
2022-11-27T09:47:44.351Z,101171.36
2022-11-27T09:48:51.512Z,101185.85
2022-11-27T09:50:02.966Z,101179.80
2022-11-27T09:51:22.705Z,101183.09
2022-11-27T09:52:38.141Z,101180.20
2022-11-27T09:53:51.356Z,101178.74
2022-11-27T09:55:04.448Z,101177.45
2022-11-27T09:56:11.780Z,101179.25
2022-11-27T09:57:18.316Z,101173.03
2022-11-27T09:58:44.874Z,101180.98
2022-11-27T09:59:54.237Z,101174.71
2022-11-27T10:00:56.985Z,101180.04
2022-11-27T10:02:00.434Z,101179.12
2022-11-27T10:03:05.868Z,101182.80
2022-11-27T10:04:16.676Z,101182.83
2022-11-27T10:05:26.963Z,101182.61
2022-11-27T10:06:37.080Z,101179.12
2022-11-27T10:08:06.093Z,101183.96
2022-11-27T10:10:41.043Z,101171.94
2022-11-27T10:11:50.513Z,101176.63
2022-11-27T10:13:03.969Z,101178.61
2022-11-27T10:14:45.673Z,101166.77
2022-11-27T10:16:10.359Z,101177.96
2022-11-27T10:17:23.282Z,101172.80
2022-11-27T10:18:42.587Z,101171.53
2022-11-27T10:19:52.592Z,101171.77
2022-11-27T10:21:12.655Z,101169.71
2022-11-27T10:22:40.750Z,101170.88
2022-11-27T10:24:01.079Z,101180.66
2022-11-27T10:25:28.376Z,101170.83
2022-11-27T10:29:35.730Z,101169.34
2022-11-27T10:30:43.829Z,101171.30
2022-11-27T10:31:50.108Z,101164.97
2022-11-27T10:32:58.564Z,101160.67
2022-11-27T10:34:06.110Z,101159.87
2022-11-27T10:35:13.466Z,101160.53
2022-11-27T10:36:32.467Z,101161.70
2022-11-27T10:37:49.794Z,101166.12
2022-11-27T10:38:54.962Z,101169.29
2022-11-27T10:40:12.858Z,101163.60
2022-11-27T10:41:48.912Z,101163.96
2022-11-27T10:42:43.046Z,101159.84
2022-11-27T10:43:48.955Z,101162.05
2022-11-27T10:44:56.185Z,101160.95
2022-11-27T10:46:21.605Z,101165.66
2022-11-27T10:47:32.293Z,101159.61
2022-11-27T10:48:34.499Z,101160.95
2022-11-27T10:49:41.343Z,101155.04
2022-11-27T10:50:46.778Z,101156.66
2022-11-27T10:51:50.341Z,101159.36
2022-11-27T10:52:56.479Z,101159.14
2022-11-27T10:54:04.249Z,101148.30
2022-11-27T10:55:11.593Z,101158.77
2022-11-27T10:56:24.660Z,101156.09
2022-11-27T10:59:08.329Z,101154.89
2022-11-27T11:00:15.962Z,101147.58
2022-11-27T11:01:23.638Z,101151.09
2022-11-27T11:02:30.563Z,101151.42
2022-11-27T11:03:33.981Z,101150.69
2022-11-27T11:04:38.693Z,101147.80
2022-11-27T11:06:12.253Z,101151.33
2022-11-27T11:06:54.575Z,101145.05
2022-11-27T11:08:08.432Z,101148.70
2022-11-27T11:09:28.603Z,101143.78
2022-11-27T11:10:37.075Z,101134.27
2022-11-27T11:11:43.162Z,101144.28
2022-11-27T11:12:46.548Z,101143.28
2022-11-27T11:13:50.766Z,101138.97
2022-11-27T11:15:01.012Z,101139.92
2022-11-27T11:16:10.957Z,101135.50
2022-11-27T11:17:17.276Z,101137.66
2022-11-27T11:18:25.911Z,101142.81
2022-11-27T11:19:34.665Z,101141.27
2022-11-27T11:20:38.800Z,101139.83
2022-11-27T11:21:45.757Z,101139.70
2022-11-27T11:22:50.300Z,101140.25
2022-11-27T11:24:04.915Z,101147.36
2022-11-27T11:25:12.188Z,101137.94
2022-11-27T11:26:28.812Z,101146.70
2022-11-27T11:27:33.408Z,101136.07
2022-11-27T11:28:41.576Z,101144.71
2022-11-27T11:29:49.981Z,101149.33
2022-11-27T11:31:01.368Z,101148.44
2022-11-27T11:32:14.578Z,101152.03
2022-11-27T11:59:02.759Z,101143.89
2022-11-27T12:00:10.725Z,101135.81
2022-11-27T12:01:36.050Z,101141.92
2022-11-27T12:04:47.453Z,101142.85
2022-11-27T12:06:03.668Z,101142.31
2022-11-27T12:07:38.515Z,101147.09
2022-11-27T12:10:24.311Z,101140.08
2022-11-27T12:11:56.757Z,101146.48
2022-11-27T12:13:24.759Z,101151.47
2022-11-27T12:14:42.603Z,101147.83
2022-11-27T12:15:52.108Z,101143.38
2022-11-27T12:17:19.452Z,101139.24
2022-11-27T12:18:32.667Z,101146.06
2022-11-27T12:19:48.811Z,101144.88
2022-11-27T12:21:19.370Z,101145.63
2022-11-27T12:22:26.839Z,101142.79
2022-11-27T12:23:51.453Z,101151.06
2022-11-27T12:26:59.500Z,101138.93
2022-11-27T12:28:09.562Z,101147.39
2022-11-27T12:29:32.430Z,101138.55
2022-11-27T12:30:59.427Z,101137.85
2022-11-27T12:32:30.593Z,101139.26
2022-11-27T12:33:58.560Z,101145.24
2022-11-27T12:35:20.438Z,101138.25
2022-11-27T12:36:31.369Z,101139.96
